createdAt,value
2023-03-17T00:00:05.729Z,3.40
2023-03-17T00:01:05.717Z,3.90
2023-03-17T00:02:05.736Z,3.50
2023-03-17T00:03:05.693Z,2.80
2023-03-17T00:04:05.733Z,3.20
2023-03-17T00:05:05.678Z,3.50
2023-03-17T00:06:05.666Z,3.50
2023-03-17T00:07:05.664Z,2.80
2023-03-17T00:08:05.637Z,3.40
2023-03-17T00:09:05.631Z,3.00
2023-03-17T00:10:05.625Z,4.50
2023-03-17T00:11:05.617Z,3.20
2023-03-17T00:12:05.593Z,3.60
2023-03-17T00:13:05.589Z,3.10
2023-03-17T00:14:05.576Z,2.90
2023-03-17T00:15:05.590Z,2.50
2023-03-17T00:16:05.591Z,3.00
2023-03-17T00:17:05.573Z,2.90
2023-03-17T00:18:05.553Z,3.10
2023-03-17T00:19:05.521Z,3.50
2023-03-17T00:20:05.515Z,3.30
2023-03-17T00:21:05.500Z,3.20
2023-03-17T00:22:05.488Z,3.40
2023-03-17T00:23:05.488Z,3.30
2023-03-17T00:24:05.568Z,3.50
2023-03-17T00:25:05.463Z,3.00
2023-03-17T00:26:05.446Z,3.60
2023-03-17T00:27:05.457Z,3.00
2023-03-17T00:28:05.428Z,2.80
2023-03-17T00:29:05.419Z,4.10
2023-03-17T00:30:05.406Z,3.80
2023-03-17T00:31:05.472Z,3.20
2023-03-17T00:32:05.391Z,2.90
2023-03-17T00:33:05.436Z,2.90
2023-03-17T00:34:05.365Z,3.50
2023-03-17T00:35:05.354Z,3.20
2023-03-17T00:36:05.460Z,2.90
2023-03-17T00:37:05.340Z,3.40
2023-03-17T00:38:05.315Z,3.00
2023-03-17T00:39:05.312Z,3.50
2023-03-17T00:40:05.312Z,3.30
2023-03-17T00:41:05.299Z,3.30
2023-03-17T00:42:05.277Z,2.70
2023-03-17T00:43:05.268Z,3.10
2023-03-17T00:44:05.249Z,3.40
2023-03-17T00:45:05.246Z,3.20
2023-03-17T00:46:05.234Z,2.90
2023-03-17T00:47:05.264Z,3.20
2023-03-17T00:48:05.206Z,3.30
2023-03-17T00:49:05.199Z,3.40
2023-03-17T00:50:05.187Z,3.10
2023-03-17T00:51:05.193Z,3.80
2023-03-17T00:52:05.166Z,3.10
2023-03-17T00:53:05.166Z,2.90
2023-03-17T00:54:05.142Z,3.20
2023-03-17T00:55:05.154Z,2.90
2023-03-17T00:56:05.132Z,3.70
2023-03-17T00:57:05.127Z,3.30
2023-03-17T00:58:05.109Z,3.50
2023-03-17T00:59:05.103Z,2.60
2023-03-17T01:00:05.112Z,3.10
2023-03-17T01:01:05.165Z,3.70
2023-03-17T01:02:05.110Z,3.60
2023-03-17T01:03:05.062Z,3.60
2023-03-17T01:04:05.061Z,3.00
2023-03-17T01:05:06.701Z,3.10
2023-03-17T01:06:05.021Z,3.50
2023-03-17T01:07:05.025Z,2.60
2023-03-17T01:08:05.005Z,3.00
2023-03-17T01:09:05.000Z,2.60
2023-03-17T01:10:04.987Z,2.90
2023-03-17T01:11:04.980Z,3.40
2023-03-17T01:12:04.957Z,3.50
2023-03-17T01:13:04.955Z,3.50
2023-03-17T01:14:04.948Z,2.60
2023-03-17T01:15:04.925Z,2.60
2023-03-17T01:16:04.941Z,3.40
2023-03-17T01:17:04.915Z,2.70
2023-03-17T01:18:04.904Z,2.90
2023-03-17T01:19:04.889Z,3.30
2023-03-17T01:20:04.869Z,3.10
2023-03-17T01:21:04.861Z,2.60
2023-03-17T01:22:04.876Z,3.10
2023-03-17T01:23:04.860Z,3.40
2023-03-17T01:24:04.837Z,3.10
2023-03-17T01:25:04.833Z,3.60
2023-03-17T01:26:04.819Z,3.10
2023-03-17T01:27:04.814Z,2.90
2023-03-17T01:28:04.781Z,3.30
2023-03-17T01:29:04.837Z,3.10
2023-03-17T01:30:04.773Z,2.30
2023-03-17T01:31:04.756Z,3.60
2023-03-17T01:32:04.743Z,2.70
2023-03-17T01:33:04.764Z,3.00
2023-03-17T01:34:04.717Z,2.90
2023-03-17T01:35:04.733Z,3.40
2023-03-17T01:36:04.709Z,3.50
2023-03-17T01:37:04.691Z,2.80
2023-03-17T01:38:04.672Z,3.30
2023-03-17T01:39:04.664Z,3.00
2023-03-17T01:40:04.659Z,3.40
2023-03-17T01:41:04.663Z,2.70
2023-03-17T01:42:04.632Z,3.40
2023-03-17T01:43:04.638Z,3.40
2023-03-17T01:44:04.632Z,2.90
2023-03-17T01:45:04.605Z,2.80
2023-03-17T01:46:04.655Z,2.40
2023-03-17T01:47:04.580Z,3.30
2023-03-17T01:48:04.570Z,2.70
2023-03-17T01:49:04.579Z,3.50
2023-03-17T01:50:04.557Z,2.60
2023-03-17T01:51:04.551Z,3.10
2023-03-17T01:52:04.553Z,2.50
2023-03-17T01:53:04.530Z,3.40
2023-03-17T01:54:04.520Z,3.70
2023-03-17T01:55:04.501Z,3.00
2023-03-17T01:56:04.483Z,2.50
2023-03-17T01:57:04.483Z,2.70
2023-03-17T01:58:04.471Z,2.50
2023-03-17T01:59:04.461Z,2.80
2023-03-17T02:00:04.450Z,3.40
2023-03-17T02:01:04.496Z,3.20
2023-03-17T02:02:04.432Z,3.40
2023-03-17T02:03:04.429Z,2.80
2023-03-17T02:04:04.452Z,2.80
2023-03-17T02:05:04.392Z,3.10
2023-03-17T02:06:04.382Z,2.90
2023-03-17T02:07:04.371Z,3.50
2023-03-17T02:08:04.366Z,3.50
2023-03-17T02:09:04.369Z,2.80
2023-03-17T02:10:04.348Z,3.00
2023-03-17T02:11:04.344Z,3.00
2023-03-17T02:12:04.324Z,3.00
2023-03-17T02:13:04.323Z,2.50
2023-03-17T02:14:04.310Z,3.20
2023-03-17T02:15:04.289Z,3.30
2023-03-17T02:16:04.273Z,3.10
2023-03-17T02:17:04.273Z,2.80
2023-03-17T02:18:04.279Z,3.90
2023-03-17T02:19:04.244Z,3.50
2023-03-17T02:20:04.247Z,3.30
2023-03-17T02:21:04.248Z,3.30
2023-03-17T02:22:04.234Z,2.70
2023-03-17T02:23:04.307Z,3.30
2023-03-17T02:24:04.187Z,2.40
2023-03-17T02:25:04.184Z,2.30
2023-03-17T02:26:04.173Z,3.10
2023-03-17T02:27:04.169Z,3.00
2023-03-17T02:28:04.154Z,3.20
2023-03-17T02:29:04.156Z,2.80
2023-03-17T02:30:04.123Z,3.00
2023-03-17T02:31:04.163Z,2.40
2023-03-17T02:32:04.108Z,3.00
2023-03-17T02:33:04.161Z,3.00
2023-03-17T02:34:04.160Z,3.40
2023-03-17T02:35:04.076Z,3.20
2023-03-17T02:36:04.113Z,3.00
2023-03-17T02:37:04.056Z,2.80
2023-03-17T02:38:04.045Z,3.60
2023-03-17T02:39:04.045Z,3.20
2023-03-17T02:40:04.018Z,3.70
2023-03-17T02:41:04.015Z,3.50
2023-03-17T02:42:04.001Z,3.40
2023-03-17T02:43:03.992Z,2.50
2023-03-17T02:44:03.999Z,3.10
2023-03-17T02:45:03.979Z,2.80
2023-03-17T02:46:04.026Z,2.60
2023-03-17T02:47:03.950Z,2.80
2023-03-17T02:48:03.939Z,3.00
2023-03-17T02:49:03.935Z,2.70
2023-03-17T02:50:03.923Z,3.60
2023-03-17T02:51:03.924Z,2.80
2023-03-17T02:52:03.893Z,3.00
2023-03-17T02:53:03.892Z,2.50
2023-03-17T02:54:03.897Z,2.80
2023-03-17T02:55:03.869Z,3.30
2023-03-17T02:56:03.857Z,2.60
2023-03-17T02:57:03.851Z,3.00
2023-03-17T02:58:03.847Z,3.20
2023-03-17T02:59:03.832Z,3.10
2023-03-17T03:00:03.816Z,2.90
2023-03-17T03:01:03.862Z,2.40
2023-03-17T03:02:03.801Z,3.20
2023-03-17T03:03:03.788Z,3.30
2023-03-17T03:04:03.780Z,2.80
2023-03-17T03:05:03.774Z,3.30
2023-03-17T03:06:03.751Z,3.10
2023-03-17T03:07:03.744Z,3.30
2023-03-17T03:08:03.727Z,2.50
2023-03-17T03:09:03.727Z,3.00
2023-03-17T03:10:03.712Z,2.60
2023-03-17T03:11:03.694Z,2.80
2023-03-17T03:12:03.683Z,3.10
2023-03-17T03:13:03.685Z,2.40
2023-03-17T03:14:03.660Z,3.00
2023-03-17T03:15:03.662Z,3.50
2023-03-17T03:16:03.790Z,2.70
2023-03-17T03:17:03.635Z,3.10
2023-03-17T03:18:03.625Z,2.50
2023-03-17T03:19:03.614Z,3.80
2023-03-17T03:20:03.598Z,2.90
2023-03-17T03:21:03.590Z,2.60
2023-03-17T03:22:03.573Z,3.70
2023-03-17T03:23:03.578Z,2.80
2023-03-17T03:24:03.573Z,3.10
2023-03-17T03:25:03.542Z,3.10
2023-03-17T03:26:03.538Z,3.20
2023-03-17T03:27:03.530Z,3.40
2023-03-17T03:28:03.526Z,3.30
2023-03-17T03:29:03.501Z,2.80
2023-03-17T03:30:03.515Z,2.90
2023-03-17T03:31:03.581Z,3.00
2023-03-17T03:32:03.471Z,3.00
2023-03-17T03:33:03.518Z,2.60
2023-03-17T03:34:03.450Z,2.80
2023-03-17T03:35:03.443Z,3.20
2023-03-17T03:36:03.438Z,3.20
2023-03-17T03:37:03.413Z,3.00
2023-03-17T03:38:03.407Z,2.60
2023-03-17T03:39:03.400Z,3.30
2023-03-17T03:40:03.398Z,2.70
2023-03-17T03:41:03.389Z,3.20
2023-03-17T03:42:03.366Z,2.90
2023-03-17T03:43:16.069Z,2.90
2023-03-17T03:44:03.351Z,2.90
2023-03-17T03:45:03.354Z,3.40
2023-03-17T03:46:03.461Z,2.30
2023-03-17T03:47:03.303Z,3.00
2023-03-17T03:48:03.296Z,2.60
2023-03-17T03:49:03.279Z,3.20
2023-03-17T03:50:03.270Z,2.80
2023-03-17T03:51:03.278Z,3.20
2023-03-17T03:52:03.250Z,2.80
2023-03-17T03:53:03.235Z,2.80
2023-03-17T03:54:03.253Z,3.50
2023-03-17T03:55:03.220Z,3.10
2023-03-17T03:56:03.230Z,3.00
2023-03-17T03:57:03.205Z,2.90
2023-03-17T03:58:03.186Z,3.40
2023-03-17T03:59:03.182Z,2.90
2023-03-17T04:00:03.168Z,2.60
2023-03-17T04:01:03.165Z,2.60
2023-03-17T04:02:03.157Z,2.50
2023-03-17T04:03:03.195Z,2.30
2023-03-17T04:04:03.129Z,3.20
2023-03-17T04:05:03.187Z,2.90
2023-03-17T04:06:03.108Z,2.70
2023-03-17T04:07:03.084Z,3.00
2023-03-17T04:08:03.077Z,2.40
2023-03-17T04:09:03.063Z,3.10
2023-03-17T04:10:03.070Z,3.40
2023-03-17T04:11:03.042Z,3.30
2023-03-17T04:12:03.042Z,3.10
2023-03-17T04:13:03.034Z,3.10
2023-03-17T04:14:03.012Z,2.80
2023-03-17T04:15:03.031Z,2.50
2023-03-17T04:16:03.012Z,2.70
2023-03-17T04:17:02.979Z,2.70
2023-03-17T04:18:02.973Z,2.90
2023-03-17T04:19:03.033Z,2.10
2023-03-17T04:20:02.951Z,3.50
2023-03-17T04:21:02.945Z,2.70
2023-03-17T04:22:02.924Z,2.70
2023-03-17T04:23:02.913Z,3.00
2023-03-17T04:24:02.907Z,2.60
2023-03-17T04:25:02.888Z,3.20
2023-03-17T04:26:02.899Z,3.50
2023-03-17T04:27:05.505Z,2.90
2023-03-17T04:28:02.859Z,2.60
2023-03-17T04:29:02.848Z,2.80
2023-03-17T04:30:02.839Z,3.00
2023-03-17T04:31:02.825Z,2.90
2023-03-17T04:32:02.826Z,3.20
2023-03-17T04:33:02.935Z,2.30
2023-03-17T04:34:02.800Z,3.20
2023-03-17T04:35:02.794Z,3.00
2023-03-17T04:36:02.808Z,2.40
2023-03-17T04:37:02.766Z,2.60
2023-03-17T04:38:02.764Z,2.60
2023-03-17T04:39:02.742Z,2.80
2023-03-17T04:40:02.740Z,2.50
2023-03-17T04:41:02.727Z,2.20
2023-03-17T04:42:02.785Z,2.40
2023-03-17T04:43:03.613Z,2.80
2023-03-17T04:44:02.695Z,2.60
2023-03-17T04:45:02.679Z,2.40
2023-03-17T04:46:02.760Z,2.70
2023-03-17T04:47:02.652Z,2.80
2023-03-17T04:48:02.645Z,3.50
2023-03-17T04:49:02.650Z,2.60
2023-03-17T04:50:02.650Z,3.00
2023-03-17T04:51:02.621Z,3.10
2023-03-17T04:52:02.605Z,3.50
2023-03-17T04:53:02.595Z,2.40
2023-03-17T04:54:02.596Z,3.00
2023-03-17T04:55:02.572Z,3.00
2023-03-17T04:56:02.568Z,2.90
2023-03-17T04:57:02.559Z,3.60
2023-03-17T04:58:02.540Z,2.60
2023-03-17T04:59:03.170Z,2.80
2023-03-17T05:00:02.540Z,2.70
2023-03-17T05:01:02.610Z,2.40
2023-03-17T05:02:02.533Z,3.00
2023-03-17T05:03:02.491Z,2.40
2023-03-17T05:04:02.498Z,2.50
2023-03-17T05:05:02.469Z,2.70
2023-03-17T05:06:02.473Z,2.60
2023-03-17T05:07:02.466Z,3.00
2023-03-17T05:08:02.433Z,2.50
2023-03-17T05:09:02.416Z,2.50
2023-03-17T05:10:02.412Z,3.20
2023-03-17T05:11:02.463Z,2.90
2023-03-17T05:12:02.404Z,3.60
2023-03-17T05:13:02.371Z,2.90
2023-03-17T05:14:02.367Z,2.70
2023-03-17T05:15:02.362Z,3.10
2023-03-17T05:16:02.356Z,2.30
2023-03-17T05:17:02.330Z,2.60
2023-03-17T05:18:04.896Z,2.70
2023-03-17T05:19:02.323Z,2.90
2023-03-17T05:20:02.324Z,2.60
2023-03-17T05:21:02.292Z,2.70
2023-03-17T05:22:02.288Z,2.70
2023-03-17T05:23:02.300Z,2.90
2023-03-17T05:24:02.299Z,2.80
2023-03-17T05:25:02.253Z,2.20
2023-03-17T05:26:02.241Z,3.30
2023-03-17T05:27:02.235Z,2.90
2023-03-17T05:28:02.219Z,2.90
2023-03-17T05:29:02.241Z,3.30
2023-03-17T05:30:02.229Z,3.00
2023-03-17T05:31:02.215Z,2.90
2023-03-17T05:32:02.180Z,2.70
2023-03-17T05:33:02.238Z,3.20
2023-03-17T05:34:02.172Z,2.50
2023-03-17T05:35:02.173Z,2.70
2023-03-17T05:36:02.154Z,2.80
2023-03-17T05:37:02.123Z,3.00
2023-03-17T05:38:02.114Z,2.20
2023-03-17T05:39:02.108Z,2.80
2023-03-17T05:40:02.097Z,2.60
2023-03-17T05:41:02.103Z,2.60
2023-03-17T05:42:02.067Z,2.80
2023-03-17T05:43:02.056Z,2.90
2023-03-17T05:44:02.071Z,2.90
2023-03-17T05:45:02.051Z,2.60
2023-03-17T05:46:02.041Z,2.70
2023-03-17T05:47:02.015Z,2.60
2023-03-17T05:48:02.012Z,2.50
2023-03-17T05:49:02.000Z,3.10
2023-03-17T05:50:01.989Z,2.20
2023-03-17T05:51:07.952Z,3.00
2023-03-17T05:52:01.975Z,3.10
2023-03-17T05:53:01.948Z,3.10
2023-03-17T05:54:01.953Z,2.60
2023-03-17T05:55:01.924Z,2.90
2023-03-17T05:56:01.927Z,2.70
2023-03-17T05:57:01.903Z,3.10
2023-03-17T05:58:01.896Z,2.40
2023-03-17T05:59:01.925Z,3.20
2023-03-17T06:00:01.893Z,2.90
2023-03-17T06:01:01.884Z,2.50
2023-03-17T06:02:01.871Z,3.00
2023-03-17T06:03:01.851Z,2.70
2023-03-17T06:04:02.723Z,2.60
2023-03-17T06:05:01.832Z,2.80
2023-03-17T06:06:01.819Z,2.90
2023-03-17T06:07:01.804Z,2.10
2023-03-17T06:08:01.790Z,2.30
2023-03-17T06:09:01.779Z,2.90
2023-03-17T06:10:01.786Z,2.30
2023-03-17T06:11:01.804Z,3.40
2023-03-17T06:12:01.756Z,2.40
2023-03-17T06:13:03.892Z,2.60
2023-03-17T06:14:01.818Z,2.30
2023-03-17T06:15:01.727Z,2.70
2023-03-17T06:16:01.741Z,2.40
2023-03-17T06:17:01.692Z,3.00
2023-03-17T06:18:01.685Z,3.50
2023-03-17T06:19:01.670Z,2.40
2023-03-17T06:20:01.800Z,2.50
2023-03-17T06:21:01.677Z,3.20
2023-03-17T06:22:01.638Z,2.80
2023-03-17T06:23:05.264Z,2.60
2023-03-17T06:24:01.625Z,2.50
2023-03-17T06:25:01.642Z,3.00
2023-03-17T06:26:01.618Z,2.70
2023-03-17T06:27:01.580Z,2.90
2023-03-17T06:28:01.579Z,2.70
2023-03-17T06:29:01.563Z,3.10
2023-03-17T06:30:01.600Z,3.30
2023-03-17T06:31:01.606Z,3.40
2023-03-17T06:32:18.896Z,2.10
2023-03-17T06:33:01.647Z,2.60
2023-03-17T06:34:01.514Z,2.50
2023-03-17T06:35:01.509Z,2.50
2023-03-17T06:36:01.532Z,2.60
2023-03-17T06:37:01.480Z,2.70
2023-03-17T06:38:01.465Z,2.80
2023-03-17T06:39:01.456Z,2.90
2023-03-17T06:40:01.456Z,2.90
2023-03-17T06:41:01.440Z,2.80
2023-03-17T06:42:01.421Z,3.10
2023-03-17T06:43:01.420Z,2.50
2023-03-17T06:44:01.411Z,2.90
2023-03-17T06:45:01.403Z,2.20
2023-03-17T06:46:01.387Z,2.30
2023-03-17T06:47:01.363Z,2.70
2023-03-17T06:48:01.373Z,2.40
2023-03-17T06:49:01.357Z,2.60
2023-03-17T06:50:01.339Z,2.30
2023-03-17T06:51:01.324Z,3.70
2023-03-17T06:52:01.327Z,3.10
2023-03-17T06:53:01.307Z,2.60
2023-03-17T06:54:01.301Z,3.30
2023-03-17T06:55:01.283Z,2.50
2023-03-17T06:56:01.286Z,3.30
2023-03-17T06:57:01.331Z,2.50
2023-03-17T06:58:01.253Z,2.00
2023-03-17T06:59:01.242Z,2.80
2023-03-17T07:00:01.230Z,2.50
2023-03-17T07:01:01.220Z,2.70
2023-03-17T07:02:01.227Z,3.40
2023-03-17T07:03:01.239Z,3.10
2023-03-17T07:04:01.193Z,2.60
2023-03-17T07:05:01.280Z,2.30
2023-03-17T07:06:01.173Z,2.70
2023-03-17T07:07:01.150Z,2.60
2023-03-17T07:08:01.136Z,2.50
2023-03-17T07:09:02.355Z,3.00
2023-03-17T07:10:01.069Z,3.10
2023-03-17T07:11:01.108Z,3.00
2023-03-17T07:12:01.116Z,2.70
2023-03-17T07:13:01.085Z,2.60
2023-03-17T07:14:01.039Z,3.00
2023-03-17T07:15:01.025Z,3.00
2023-03-17T07:16:01.150Z,2.80
2023-03-17T07:17:01.046Z,2.70
2023-03-17T07:18:01.063Z,2.80
2023-03-17T07:19:01.026Z,3.10
2023-03-17T07:20:00.973Z,2.20
2023-03-17T07:21:00.958Z,2.50
2023-03-17T07:22:01.011Z,2.80
2023-03-17T07:23:00.957Z,2.60
2023-03-17T07:24:00.916Z,2.50
2023-03-17T07:25:00.904Z,3.00
2023-03-17T07:26:00.890Z,3.60
2023-03-17T07:27:00.918Z,2.70
2023-03-17T07:28:00.869Z,2.30
2023-03-17T07:29:00.899Z,3.00
2023-03-17T07:30:00.855Z,2.50
2023-03-17T07:31:00.876Z,2.40
2023-03-17T07:32:00.832Z,2.30
2023-03-17T07:33:00.921Z,2.90
2023-03-17T07:34:00.815Z,2.40
2023-03-17T07:35:00.796Z,3.00
2023-03-17T07:36:00.856Z,2.70
2023-03-17T07:37:00.791Z,2.20
2023-03-17T07:38:00.754Z,2.80
2023-03-17T07:39:00.761Z,2.20
2023-03-17T07:40:00.748Z,2.70
2023-03-17T07:41:00.738Z,2.50
2023-03-17T07:42:00.720Z,3.20
2023-03-17T07:43:00.710Z,2.30
2023-03-17T07:44:00.694Z,2.80
2023-03-17T07:45:00.703Z,2.60
2023-03-17T07:46:00.791Z,2.50
2023-03-17T07:47:00.658Z,2.70
2023-03-17T07:48:00.671Z,2.60
2023-03-17T07:49:00.648Z,3.00
2023-03-17T07:50:00.630Z,2.70
2023-03-17T07:51:00.627Z,2.40
2023-03-17T07:52:00.615Z,2.90
2023-03-17T07:53:00.632Z,2.90
2023-03-17T07:54:00.586Z,2.30
2023-03-17T07:55:00.571Z,1.90
2023-03-17T07:56:00.573Z,3.00
2023-03-17T07:57:00.566Z,2.50
2023-03-17T07:58:00.586Z,2.40
2023-03-17T07:59:00.552Z,2.40
2023-03-17T08:00:00.516Z,2.80
2023-03-17T08:01:00.518Z,2.90
2023-03-17T08:02:00.550Z,3.20
2023-03-17T08:03:09.856Z,2.70
2023-03-17T08:04:00.547Z,3.00
2023-03-17T08:05:00.466Z,2.30
2023-03-17T08:06:00.460Z,2.40
2023-03-17T08:07:00.446Z,3.20
2023-03-17T08:08:00.496Z,2.40
2023-03-17T08:09:00.467Z,3.40
2023-03-17T08:10:00.482Z,3.00
2023-03-17T08:11:00.459Z,2.30
2023-03-17T08:12:00.437Z,2.90
2023-03-17T08:13:00.426Z,2.80
2023-03-17T08:14:00.433Z,3.00
2023-03-17T08:15:00.369Z,3.10
2023-03-17T08:16:00.403Z,3.30
2023-03-17T08:17:00.435Z,3.10
2023-03-17T08:18:00.382Z,2.80
2023-03-17T08:19:00.334Z,3.30
2023-03-17T08:20:00.383Z,2.90
2023-03-17T08:21:00.297Z,3.40
2023-03-17T08:22:00.302Z,2.30
2023-03-17T08:23:00.279Z,2.20
2023-03-17T08:24:00.313Z,2.40
2023-03-17T08:25:00.305Z,3.40
2023-03-17T08:26:00.298Z,2.40
2023-03-17T08:27:00.977Z,2.70
2023-03-17T08:28:00.215Z,2.90
2023-03-17T08:29:00.206Z,2.80
2023-03-17T08:30:00.219Z,3.10
2023-03-17T08:31:00.252Z,2.70
2023-03-17T08:32:00.168Z,2.50
2023-03-17T08:33:00.345Z,3.40
2023-03-17T08:34:00.178Z,2.70
2023-03-17T08:35:00.144Z,2.80
2023-03-17T08:36:00.199Z,2.70
2023-03-17T08:37:00.142Z,2.50
2023-03-17T08:38:00.129Z,3.30
2023-03-17T08:39:00.128Z,3.70
2023-03-17T08:40:00.135Z,2.70
2023-03-17T08:41:00.102Z,3.40
2023-03-17T08:42:00.081Z,3.10
2023-03-17T08:43:00.088Z,3.20
2023-03-17T08:44:00.058Z,3.10
2023-03-17T08:45:00.035Z,2.60
2023-03-17T08:46:00.047Z,3.30
2023-03-17T08:47:00.029Z,2.80
2023-03-17T08:48:00.007Z,2.90
2023-03-17T08:49:00.000Z,3.30
2023-03-17T08:49:59.981Z,2.50
2023-03-17T08:51:00.030Z,3.30
2023-03-17T08:52:00.018Z,2.40
2023-03-17T08:53:00.008Z,2.50
2023-03-17T08:53:59.968Z,3.20
2023-03-17T08:54:59.988Z,3.00
2023-03-17T08:55:59.940Z,2.60
2023-03-17T08:56:59.915Z,3.20
2023-03-17T08:57:59.896Z,2.50
2023-03-17T08:58:59.948Z,2.10
2023-03-17T08:59:59.879Z,2.40
2023-03-17T09:00:59.945Z,3.00
2023-03-17T09:01:59.859Z,2.00
2023-03-17T09:03:00.102Z,2.60
2023-03-17T09:03:59.842Z,2.50
2023-03-17T09:04:59.827Z,2.80
2023-03-17T09:05:59.801Z,3.30
2023-03-17T09:07:03.795Z,2.90
2023-03-17T09:07:59.866Z,3.20
2023-03-17T09:08:59.772Z,2.80
2023-03-17T09:09:59.768Z,2.90
2023-03-17T09:10:59.755Z,3.10
2023-03-17T09:11:59.752Z,2.90
2023-03-17T09:12:59.742Z,2.80
2023-03-17T09:13:59.740Z,2.50
2023-03-17T09:14:59.720Z,2.50
2023-03-17T09:15:59.763Z,3.70
2023-03-17T09:16:59.698Z,3.00
2023-03-17T09:17:59.687Z,3.10
2023-03-17T09:18:59.680Z,3.20
2023-03-17T09:19:59.675Z,2.30
2023-03-17T09:20:59.743Z,3.30
2023-03-17T09:21:59.634Z,2.90
2023-03-17T09:22:59.625Z,3.20
2023-03-17T09:24:02.280Z,3.00
2023-03-17T09:24:59.609Z,3.00
2023-03-17T09:25:59.627Z,2.80
2023-03-17T09:26:59.607Z,2.70
2023-03-17T09:27:59.566Z,2.70
2023-03-17T09:28:59.557Z,3.50
2023-03-17T09:29:59.545Z,2.60
2023-03-17T09:30:59.583Z,2.40
2023-03-17T09:31:59.532Z,3.30
2023-03-17T09:32:59.537Z,3.60
2023-03-17T09:33:59.500Z,3.00
2023-03-17T09:34:59.489Z,2.70
2023-03-17T09:35:59.552Z,3.10
2023-03-17T09:36:59.479Z,3.00
2023-03-17T09:37:59.469Z,3.20
2023-03-17T09:38:59.474Z,3.80
2023-03-17T09:39:59.435Z,3.80
2023-03-17T09:40:59.429Z,2.80
2023-03-17T09:41:59.408Z,2.80
2023-03-17T09:42:59.420Z,3.30
2023-03-17T09:43:59.403Z,3.40
2023-03-17T09:44:59.404Z,2.40
2023-03-17T09:45:59.366Z,2.30
2023-03-17T09:46:59.367Z,2.70
2023-03-17T09:47:59.346Z,2.50
2023-03-17T09:48:59.344Z,2.90
2023-03-17T09:49:59.342Z,2.40
2023-03-17T09:50:59.438Z,3.70
2023-03-17T09:51:59.308Z,2.80
2023-03-17T09:53:00.063Z,3.60
2023-03-17T09:53:59.286Z,2.70
2023-03-17T09:54:59.285Z,2.80
2023-03-17T09:55:59.330Z,2.70
2023-03-17T09:56:59.271Z,3.00
2023-03-17T09:57:59.241Z,3.70
2023-03-17T09:58:59.241Z,2.80
2023-03-17T09:59:59.278Z,3.00
2023-03-17T10:00:59.275Z,2.80
2023-03-17T10:01:59.311Z,3.00
2023-03-17T10:02:59.248Z,3.00
2023-03-17T10:03:59.229Z,2.50
2023-03-17T10:04:59.332Z,3.20
2023-03-17T10:05:59.207Z,3.00
2023-03-17T10:06:59.205Z,3.20
2023-03-17T10:07:59.189Z,2.60
2023-03-17T10:08:59.182Z,2.80
2023-03-17T10:09:59.183Z,2.90
2023-03-17T10:10:59.163Z,2.80
2023-03-17T10:11:59.149Z,3.00
2023-03-17T10:12:59.138Z,3.70
2023-03-17T10:13:59.123Z,4.10
2023-03-17T10:14:59.144Z,2.20
2023-03-17T10:15:59.128Z,2.90
2023-03-17T10:16:59.098Z,2.70
2023-03-17T10:17:59.086Z,2.70
2023-03-17T10:18:59.093Z,2.90
2023-03-17T10:19:59.074Z,3.00
2023-03-17T10:20:59.110Z,2.60
2023-03-17T10:21:59.070Z,3.40
2023-03-17T10:22:59.045Z,2.30
2023-03-17T10:23:59.018Z,2.80
2023-03-17T10:24:59.602Z,2.60
2023-03-17T10:25:59.058Z,3.70
2023-03-17T10:26:58.990Z,3.30
2023-03-17T10:27:58.971Z,2.20
2023-03-17T10:28:58.988Z,2.60
2023-03-17T10:29:58.956Z,3.60
2023-03-17T10:30:58.959Z,2.70
2023-03-17T10:31:59.149Z,2.80
2023-03-17T10:32:59.081Z,2.70
2023-03-17T10:33:58.911Z,2.90
2023-03-17T10:34:58.900Z,2.70
2023-03-17T10:35:58.954Z,3.10
2023-03-17T10:36:58.876Z,2.70
2023-03-17T10:38:13.609Z,3.10
2023-03-17T10:38:58.864Z,2.90
2023-03-17T10:39:58.844Z,2.80
2023-03-17T10:40:58.909Z,3.90
2023-03-17T10:41:58.830Z,2.70
2023-03-17T10:42:58.813Z,3.30
2023-03-17T10:43:58.797Z,3.10
2023-03-17T10:44:58.804Z,3.20
2023-03-17T10:45:58.814Z,2.70
2023-03-17T10:46:58.810Z,2.80
2023-03-17T10:47:58.768Z,2.50
2023-03-17T10:48:58.747Z,3.00
2023-03-17T10:49:58.745Z,2.80
2023-03-17T10:50:58.742Z,3.50
2023-03-17T10:51:58.715Z,3.40
2023-03-17T10:52:58.757Z,3.10
2023-03-17T10:53:58.709Z,3.50
2023-03-17T10:54:58.685Z,2.50
2023-03-17T10:55:58.696Z,3.30
2023-03-17T10:56:59.266Z,2.90
2023-03-17T10:57:58.648Z,2.30
2023-03-17T10:58:58.655Z,3.60
2023-03-17T10:59:59.316Z,3.20
2023-03-17T11:00:58.667Z,2.60
2023-03-17T11:01:58.607Z,2.80
2023-03-17T11:02:58.617Z,2.80
2023-03-17T11:03:58.632Z,2.80
2023-03-17T11:04:58.570Z,2.30
2023-03-17T11:05:58.559Z,3.40
2023-03-17T11:06:58.584Z,3.70
2023-03-17T11:07:58.542Z,2.90
2023-03-17T11:08:58.539Z,4.10
2023-03-17T11:09:58.533Z,3.40
2023-03-17T11:10:58.517Z,3.20
2023-03-17T11:11:58.505Z,2.80
2023-03-17T11:12:58.497Z,3.10
2023-03-17T11:13:58.495Z,3.10
2023-03-17T11:14:58.472Z,3.10
2023-03-17T11:15:58.499Z,2.80
2023-03-17T11:16:58.466Z,2.40
2023-03-17T11:17:58.430Z,2.40
2023-03-17T11:18:58.443Z,3.20
2023-03-17T11:19:58.422Z,2.90
2023-03-17T11:20:58.401Z,3.50
2023-03-17T11:21:58.388Z,3.50
2023-03-17T11:22:58.398Z,2.50
2023-03-17T11:23:58.367Z,3.50
2023-03-17T11:24:58.529Z,2.40
2023-03-17T11:25:58.356Z,3.30
2023-03-17T11:26:58.342Z,2.30
2023-03-17T11:27:58.330Z,3.30
2023-03-17T11:28:58.314Z,3.20
2023-03-17T11:29:58.360Z,4.20
2023-03-17T11:30:58.294Z,4.80
2023-03-17T11:31:58.357Z,6.40
2023-03-17T11:32:58.345Z,5.10
2023-03-17T11:33:58.260Z,5.50
2023-03-17T11:34:58.273Z,5.20
2023-03-17T11:35:58.280Z,6.40
2023-03-17T11:36:59.995Z,5.90
2023-03-17T11:37:58.222Z,6.00
2023-03-17T11:38:58.213Z,5.80
2023-03-17T11:39:58.209Z,5.90
2023-03-17T11:40:58.218Z,5.40
2023-03-17T11:41:58.172Z,5.30
2023-03-17T11:42:58.186Z,6.30
2023-03-17T11:43:58.150Z,5.60
2023-03-17T11:44:58.145Z,5.60
2023-03-17T11:45:58.164Z,6.30
2023-03-17T11:46:58.118Z,5.20
2023-03-17T11:47:59.913Z,5.40
2023-03-17T11:48:58.105Z,5.80
2023-03-17T11:49:58.086Z,6.30
2023-03-17T11:50:58.069Z,6.00
2023-03-17T11:51:58.098Z,6.60
2023-03-17T11:52:58.065Z,6.60
2023-03-17T11:53:58.048Z,6.80
2023-03-17T11:54:58.991Z,6.10
2023-03-17T11:55:58.060Z,7.10
2023-03-17T11:56:58.000Z,7.50
2023-03-17T11:57:58.012Z,4.90
2023-03-17T11:58:58.003Z,5.40
2023-03-17T11:59:57.982Z,6.60
2023-03-17T12:00:57.972Z,5.40
2023-03-17T12:01:57.970Z,5.80
2023-03-17T12:02:57.943Z,7.00
2023-03-17T12:03:58.128Z,6.20
2023-03-17T12:04:57.925Z,6.10
2023-03-17T12:05:57.917Z,6.30
2023-03-17T12:06:57.904Z,6.00
2023-03-17T12:07:57.890Z,5.90
2023-03-17T12:08:57.876Z,5.80
2023-03-17T12:09:57.863Z,6.50
2023-03-17T12:10:57.857Z,8.30
2023-03-17T12:11:57.850Z,6.00
2023-03-17T12:12:57.838Z,6.00
2023-03-17T12:13:57.827Z,7.40
2023-03-17T12:14:57.818Z,5.70
2023-03-17T12:15:57.810Z,5.60
2023-03-17T12:16:57.795Z,6.10
2023-03-17T12:17:57.785Z,6.00
2023-03-17T12:18:57.760Z,6.20
2023-03-17T12:19:57.757Z,7.00
2023-03-17T12:20:57.757Z,5.70
2023-03-17T12:21:57.744Z,6.00
2023-03-17T12:22:57.733Z,5.30
2023-03-17T12:23:57.712Z,5.10
2023-03-17T12:24:57.698Z,5.70
2023-03-17T12:25:57.698Z,5.20
2023-03-17T12:26:57.704Z,6.20
2023-03-17T12:27:57.690Z,5.80
2023-03-17T12:28:57.670Z,6.80
2023-03-17T12:29:57.653Z,5.00
2023-03-17T12:30:57.660Z,6.40
2023-03-17T12:31:57.632Z,5.30
2023-03-17T12:32:57.727Z,6.10
2023-03-17T12:33:57.651Z,5.40
2023-03-17T12:34:57.631Z,5.90
2023-03-17T12:35:57.624Z,6.50
2023-03-17T12:36:57.570Z,6.20
2023-03-17T12:37:57.571Z,5.70
2023-03-17T12:38:57.567Z,5.50
2023-03-17T12:39:57.544Z,7.00
2023-03-17T12:40:57.526Z,7.20
2023-03-17T12:41:57.533Z,5.80
2023-03-17T12:42:57.531Z,5.20
2023-03-17T12:43:57.519Z,6.00
2023-03-17T12:44:57.492Z,6.30
2023-03-17T12:45:57.566Z,5.50
2023-03-17T12:46:57.474Z,5.60
2023-03-17T12:47:57.462Z,6.40
2023-03-17T12:48:57.462Z,7.60
2023-03-17T12:49:57.457Z,5.40
2023-03-17T12:50:57.429Z,6.40
2023-03-17T12:51:57.414Z,6.30
2023-03-17T12:52:57.420Z,6.20
2023-03-17T12:53:57.396Z,5.50
2023-03-17T12:54:57.381Z,6.10
2023-03-17T12:55:57.375Z,5.70
2023-03-17T12:56:57.363Z,6.10
2023-03-17T12:57:57.358Z,6.20
2023-03-17T12:58:57.336Z,5.90
2023-03-17T12:59:57.334Z,5.80
2023-03-17T13:00:57.338Z,5.80
2023-03-17T13:01:57.446Z,6.70
2023-03-17T13:02:57.369Z,6.40
2023-03-17T13:03:57.306Z,6.70
2023-03-17T13:04:57.272Z,4.90
2023-03-17T13:05:57.268Z,6.30
2023-03-17T13:06:57.250Z,6.30
2023-03-17T13:07:57.266Z,6.20
2023-03-17T13:08:57.230Z,5.90
2023-03-17T13:09:57.179Z,6.20
2023-03-17T13:10:57.208Z,5.80
2023-03-17T13:11:57.200Z,6.20
2023-03-17T13:12:57.204Z,6.10
2023-03-17T13:13:57.202Z,5.90
2023-03-17T13:14:57.182Z,5.50
2023-03-17T13:15:57.197Z,6.60
2023-03-17T13:16:57.141Z,5.20
2023-03-17T13:17:57.142Z,5.60